Time;durP1;ratioP1;P1;durP2;ratioP2;P2;SDS_P1;SDS_P2;PMS_P1;PMS_P2;Temp;Humidity;BMP_temperature;BMP_pressure;BME280_temperature;BME280_humidity;BME280_pressure;Samples;Min_cycle;Max_cycle;Signal;HPM_P1;HPM_P2
2022/06/16 00:02:43;;;;;;;0.10;0.10;;;16.60;75.90;;;15.38;61.05;100441.63;9822206;29;96801;-90
2022/06/16 00:07:46;;;;;;;0.63;0.40;;;16.50;76.00;;;15.32;61.34;100437.06;9814863;29;97208;-91
2022/06/16 00:12:50;;;;;;;0.10;0.10;;;16.50;76.50;;;15.27;62.26;100443.81;9809745;29;96623;-91
2022/06/16 00:17:54;;;;;;;0.65;0.45;;;16.40;77.50;;;15.20;62.56;100437.56;9801746;29;98464;-90
2022/06/16 00:22:57;;;;;;;0.30;0.10;;;16.30;78.30;;;15.09;62.64;100432.72;9822735;29;96819;-90
2022/06/16 00:28:00;;;;;;;0.52;0.15;;;16.20;78.30;;;14.99;63.49;100432.19;9808683;29;96982;-91
2022/06/16 00:33:05;;;;;;;7.38;0.40;;;16.10;79.60;;;14.89;64.30;100434.38;9824773;29;96794;-91
2022/06/16 00:38:09;;;;;;;0.38;0.35;;;16.00;81.10;;;14.78;64.03;100426.84;9797274;29;96630;-91
2022/06/16 00:43:12;;;;;;;0.40;0.40;;;15.90;80.80;;;14.72;64.59;100429.25;9822946;29;96730;-91
2022/06/16 00:48:30;;;;;;;0.20;0.20;;;15.80;81.70;;;14.66;64.80;100422.00;9790445;29;99644;-91
2022/06/16 00:53:36;;;;;;;0.30;0.20;;;15.80;81.30;;;14.62;64.80;100419.88;9828337;29;96660;-91
2022/06/16 00:58:43;;;;;;;0.63;0.50;;;15.70;82.20;;;14.55;64.91;100419.81;9824315;29;96678;-90
2022/06/16 01:09:17;;;;;;;0.30;0.30;;;15.60;83.30;;;14.38;66.06;100405.78;9798719;29;96942;-90
2022/06/16 01:15:01;;;;;;;0.20;0.10;;;15.50;83.80;;;14.35;66.07;100400.00;9832745;29;96896;-91
2022/06/16 01:20:25;;;;;;;0.50;0.40;;;15.40;84.50;;;14.34;65.95;100396.50;9801505;29;96808;-90
2022/06/16 01:26:14;;;;;;;1.43;0.40;;;15.40;83.80;;;14.40;65.77;100394.94;9801343;29;97180;-89
2022/06/16 01:31:31;;;;;;;0.60;0.20;;;15.50;84.40;;;14.48;65.36;100386.81;9823227;29;96749;-91
2022/06/16 01:37:13;;;;;;;0.10;0.10;;;15.60;83.40;;;14.47;65.68;100384.34;9823700;29;96665;-90
2022/06/16 01:42:30;;;;;;;0.50;0.40;;;15.60;84.60;;;14.42;65.80;100377.69;9805754;29;97486;-91
2022/06/16 01:47:38;;;;;;;0.43;0.20;;;15.60;85.20;;;14.41;66.39;100386.72;9791806;29;98787;-90
2022/06/16 01:53:09;;;;;;;0.30;0.30;;;15.50;86.00;;;14.38;66.23;100388.94;9797402;29;96697;-91
2022/06/16 01:58:28;;;;;;;3.13;0.43;;;15.50;85.90;;;14.33;66.48;100383.31;9804583;29;97846;-91
2022/06/16 02:03:40;;;;;;;0.40;0.30;;;15.50;85.70;;;14.28;67.32;100380.41;9792533;29;96644;-90
2022/06/16 02:08:50;;;;;;;0.20;0.20;;;15.40;87.40;;;14.23;67.86;100380.94;9797646;29;96584;-90
2022/06/16 02:14:33;;;;;;;0.90;0.30;;;15.40;89.50;;;14.20;68.18;100386.66;9789402;29;98305;-91
2022/06/16 02:19:37;;;;;;;0.30;0.20;;;15.40;89.90;;;14.14;67.96;100382.88;9793137;29;96799;-90
2022/06/16 02:24:40;;;;;;;1.20;0.50;;;15.30;89.40;;;14.08;68.83;100380.94;9804372;29;97554;-91
2022/06/16 02:29:43;;;;;;;0.47;0.30;;;15.30;90.70;;;14.05;69.02;100384.00;9819507;29;96640;-91
2022/06/16 02:35:40;;;;;;;0.50;0.47;;;15.20;91.20;;;13.99;69.07;100387.44;9800399;29;96612;-90
2022/06/16 02:40:47;;;;;;;0.28;0.20;;;15.10;91.10;;;13.92;69.13;100387.34;9796883;29;96773;-91
2022/06/16 02:46:19;;;;;;;0.30;0.30;;;15.10;91.70;;;13.84;69.87;100384.75;9811295;29;96796;-91
2022/06/16 02:51:59;;;;;;;0.10;0.10;;;15.00;92.40;;;13.82;69.84;100391.31;9823086;29;96576;-91
2022/06/16 02:57:22;;;;;;;3.07;1.07;;;15.00;92.40;;;13.79;69.93;100387.13;9823209;29;96609;-90
2022/06/16 03:02:26;;;;;;;0.17;0.13;;;14.90;92.60;;;13.76;69.99;100392.88;9808310;29;96777;-90
2022/06/16 03:07:31;;;;;;;0.50;0.50;;;14.90;93.20;;;13.75;69.76;100395.72;9785104;29;98589;-89
2022/06/16 03:12:34;;;;;;;0.60;0.30;;;14.90;92.80;;;13.75;70.46;100398.41;9809234;29;97091;-90
2022/06/16 03:17:37;;;;;;;0.10;0.10;;;14.90;93.80;;;13.79;70.70;100399.66;9810955;29;96707;-90
2022/06/16 03:22:40;;;;;;;0.50;0.50;;;14.90;94.10;;;13.83;71.32;100395.63;9788834;29;96625;-90
2022/06/16 03:27:43;;;;;;;0.50;0.20;;;15.00;94.30;;;13.90;71.23;100394.69;9792367;29;98346;-91
2022/06/16 03:32:46;;;;;;;1.45;0.43;;;15.10;94.90;;;13.96;71.31;100398.47;9802599;29;96663;-91
2022/06/16 03:37:49;;;;;;;0.28;0.28;;;15.10;94.40;;;14.05;71.69;100402.72;9805989;29;96604;-90
2022/06/16 03:42:52;;;;;;;1.38;0.30;;;15.20;95.00;;;14.12;71.49;100402.81;9789379;29;96552;-90
2022/06/16 03:47:55;;;;;;;0.30;0.25;;;15.20;95.70;;;14.15;71.31;100411.28;9806494;29;96869;-90
2022/06/16 03:52:59;;;;;;;0.60;0.60;;;15.20;95.40;;;14.20;71.12;100406.19;9814336;29;96774;-90
2022/06/16 03:58:03;;;;;;;3.03;0.30;;;15.30;95.20;;;14.25;70.80;100407.47;9782032;29;96536;-91
2022/06/16 04:04:08;;;;;;;0.43;0.38;;;15.30;95.20;;;14.27;70.50;100400.91;9803300;29;97456;-90
2022/06/16 04:08:40;;;;;;;0.25;0.25;;;15.30;95.00;;;14.38;70.54;100413.00;9803644;29;98141;-91
2022/06/16 04:13:43;;;;;;;0.25;0.22;;;15.40;94.70;;;14.51;70.52;100407.81;9816781;29;98338;-91
2022/06/16 04:18:47;;;;;;;0.30;0.30;;;15.60;95.00;;;14.65;70.85;100403.47;9797685;29;97762;-90
2022/06/16 04:23:50;;;;;;;0.55;0.25;;;15.70;95.30;;;14.86;70.52;100416.84;9803145;29;96971;-91
2022/06/16 04:28:53;;;;;;;1.02;0.63;;;15.90;95.00;;;15.08;70.42;100406.97;9789760;29;96769;-91
2022/06/16 04:33:57;;;;;;;0.30;0.30;;;16.10;94.80;;;15.32;70.17;100412.94;9811702;29;96805;-90
2022/06/16 04:39:00;;;;;;;0.50;0.38;;;16.30;94.50;;;15.53;69.55;100412.91;9809883;29;96693;-90
2022/06/16 04:44:04;;;;;;;0.98;0.70;;;16.60;94.10;;;15.75;69.32;100417.22;9807379;29;98136;-90
2022/06/16 04:49:09;;;;;;;0.70;0.35;;;16.80;93.90;;;15.98;69.08;100418.81;9785895;29;97266;-91
2022/06/16 04:54:12;;;;;;;0.32;0.30;;;17.00;93.70;;;16.16;68.29;100416.41;9812777;29;96672;-92
2022/06/16 04:59:16;;;;;;;0.10;0.10;;;17.20;92.80;;;16.35;67.63;100408.66;9828444;29;97512;-91
2022/06/16 05:04:19;;;;;;;0.75;0.40;;;17.40;92.50;;;16.48;67.00;100412.22;9825192;29;96942;-90
2022/06/16 05:09:23;;;;;;;0.30;0.30;;;17.60;92.10;;;16.65;66.63;100412.69;9815242;29;97409;-91
2022/06/16 05:14:26;;;;;;;0.35;0.35;;;17.70;91.90;;;16.78;66.13;100410.06;9820121;29;98532;-90
2022/06/16 05:19:30;;;;;;;0.40;0.40;;;17.80;91.70;;;16.92;65.66;100412.78;9817167;29;96811;-90
2022/06/16 05:24:34;;;;;;;1.45;0.65;;;17.90;91.20;;;17.05;63.95;100413.63;9805509;29;97296;-90
2022/06/16 05:29:37;;;;;;;5.07;0.55;;;18.10;90.10;;;17.21;64.17;100406.19;9796737;29;98916;-89
2022/06/16 05:34:42;;;;;;;0.57;0.38;;;18.20;90.30;;;17.42;64.04;100416.75;9819022;29;96744;-90
2022/06/16 05:39:47;;;;;;;0.50;0.30;;;18.40;90.30;;;17.60;63.58;100410.72;9821123;29;98259;-90
2022/06/16 05:44:51;;;;;;;0.40;0.40;;;18.60;89.10;;;17.75;62.10;100403.31;9810203;29;96624;-91
2022/06/16 05:49:53;;;;;;;0.20;0.15;;;18.80;88.10;;;17.95;61.01;100397.06;9813708;29;99293;-90
2022/06/16 05:54:57;;;;;;;0.17;0.10;;;18.90;87.30;;;18.19;60.96;100399.03;9827160;29;96586;-91
2022/06/16 06:00:00;;;;;;;0.60;0.40;;;19.20;87.30;;;18.38;60.02;100394.63;9804676;29;96724;-89
2022/06/16 06:05:07;;;;;;;0.35;0.35;;;19.40;85.10;;;18.56;59.96;100389.34;9774434;29;96780;-90
2022/06/16 06:21:00;;;;;;;0.43;0.30;;;20.00;84.50;;;19.33;57.03;100394.66;9804907;29;96573;-90
2022/06/16 06:26:03;;;;;;;0.35;0.28;;;20.30;82.50;;;19.52;56.42;100393.66;9801335;29;97093;-90
2022/06/16 06:31:07;;;;;;;3.50;0.77;;;20.50;81.50;;;19.67;55.51;100387.91;9818852;29;97212;-91
2022/06/16 06:36:10;;;;;;;0.82;0.30;;;20.60;79.40;;;19.88;55.27;100392.91;9791361;29;96743;-90
2022/06/16 06:41:14;;;;;;;0.93;0.50;;;20.80;79.90;;;20.13;53.65;100392.00;9807660;29;96758;-90
2022/06/16 06:46:19;;;;;;;1.40;0.55;;;21.10;77.90;;;20.37;53.21;100391.06;9793675;29;96587;-90
2022/06/16 06:51:22;;;;;;;0.57;0.38;;;21.40;76.40;;;20.57;53.47;100391.66;9801195;29;97592;-90
2022/06/16 06:56:26;;;;;;;0.20;0.15;;;21.50;77.00;;;20.80;53.11;100385.50;9824302;29;96585;-92
2022/06/16 07:01:30;;;;;;;0.38;0.38;;;21.70;76.20;;;21.01;51.44;100386.88;9824310;29;97293;-91
2022/06/16 07:06:34;;;;;;;0.85;0.52;;;22.00;72.10;;;21.17;50.95;100382.69;9805416;29;96614;-91
2022/06/16 07:11:40;;;;;;;0.57;0.30;;;22.10;74.20;;;21.41;50.85;100385.41;9820290;29;98712;-90
2022/06/16 07:16:44;;;;;;;0.40;0.30;;;22.30;73.60;;;21.67;49.94;100376.84;9809103;29;96805;-90
2022/06/16 07:21:51;;;;;;;0.57;0.40;;;22.60;71.10;;;21.87;49.82;100362.91;9812814;29;96704;-92
2022/06/16 07:26:54;;;;;;;0.30;0.30;;;22.80;71.40;;;22.09;49.53;100363.97;9823020;29;96682;-91
2022/06/16 07:31:58;;;;;;;0.47;0.40;;;23.00;71.80;;;22.32;48.35;100364.97;9802427;29;97959;-91
2022/06/16 07:37:02;;;;;;;0.88;0.40;;;23.30;70.90;;;22.50;48.15;100353.94;9805128;29;97991;-91
2022/06/16 07:42:08;;;;;;;0.50;0.28;;;23.50;70.10;;;22.69;48.34;100357.25;9821276;29;96654;-91
2022/06/16 07:47:12;;;;;;;0.50;0.30;;;23.70;70.10;;;22.96;47.72;100362.88;9815118;29;97299;-91
2022/06/16 07:52:16;;;;;;;0.40;0.20;;;23.90;69.50;;;23.19;47.16;100353.78;9806551;29;98029;-91
2022/06/16 07:57:21;;;;;;;1.58;0.40;;;24.10;69.00;;;23.37;46.33;100355.41;9800445;29;98056;-91
2022/06/16 08:02:31;;;;;;;0.90;0.47;;;24.40;68.00;;;23.61;46.46;100345.19;9838677;29;96824;-91
2022/06/16 08:07:34;;;;;;;1.10;0.32;;;24.60;67.60;;;23.79;46.60;100339.50;9826833;29;97186;-91
2022/06/16 08:12:38;;;;;;;0.60;0.32;;;24.80;67.50;;;24.01;45.78;100328.66;9824582;29;96767;-91
2022/06/16 08:17:45;;;;;;;0.88;0.40;;;25.00;66.90;;;24.18;44.87;100334.81;9814291;29;96710;-92
2022/06/16 08:22:49;;;;;;;0.35;0.30;;;25.20;66.00;;;24.35;45.01;100332.06;9824776;29;96763;-91
2022/06/16 08:27:52;;;;;;;0.65;0.60;;;25.30;65.70;;;24.54;43.99;100333.34;9824595;29;97187;-92
2022/06/16 08:32:56;;;;;;;0.90;0.30;;;25.50;64.60;;;24.67;44.30;100332.09;9782669;29;97251;-91
2022/06/16 08:38:00;;;;;;;0.63;0.30;;;25.70;64.70;;;24.81;40.45;100340.63;9805891;29;96675;-91
2022/06/16 08:43:28;;;;;;;0.40;0.40;;;25.80;61.10;;;24.99;40.87;100336.72;9826257;29;96918;-92
2022/06/16 08:49:01;;;;;;;0.88;0.50;;;25.90;60.70;;;25.24;40.83;100330.66;9810742;29;96639;-91
2022/06/16 08:54:28;;;;;;;0.50;0.30;;;26.20;60.40;;;25.49;40.37;100333.56;9824368;29;98108;-91
2022/06/16 08:59:54;;;;;;;0.17;0.17;;;26.40;60.00;;;25.62;37.67;100333.09;9808624;29;98390;-93
2022/06/16 09:05:51;;;;;;;0.85;0.63;;;26.60;57.50;;;25.68;38.32;100325.78;9824673;29;97598;-91
2022/06/16 09:11:51;;;;;;;0.93;0.40;;;26.70;56.90;;;25.96;38.67;100312.84;9810757;29;96734;-92
2022/06/16 09:17:19;;;;;;;0.30;0.30;;;26.90;57.40;;;26.21;37.98;100312.94;9804216;29;96629;-92
2022/06/16 09:23:01;;;;;;;0.47;0.40;;;27.20;55.80;;;26.29;36.65;100306.97;9822975;29;97463;-92
2022/06/16 09:28:22;;;;;;;2.05;0.50;;;27.30;53.90;;;26.47;38.18;100297.50;9795477;29;96630;-93
2022/06/16 09:33:38;;;;;;;0.55;0.47;;;27.40;56.80;;;26.53;36.86;100290.13;9799278;29;96745;-93
2022/06/16 09:38:56;;;;;;;0.85;0.40;;;27.50;55.80;;;26.54;37.10;100295.31;9811342;29;96706;-93
2022/06/16 09:44:13;;;;;;;0.30;0.30;;;27.50;55.60;;;26.74;37.24;100282.78;9817192;29;96635;-93
2022/06/16 09:49:30;;;;;;;0.90;0.40;;;27.70;55.50;;;26.92;36.39;100280.31;9790026;29;96792;-93
2022/06/16 09:55:01;;;;;;;0.63;0.40;;;27.80;55.10;;;27.02;36.27;100286.84;9802729;29;96654;-93
2022/06/16 10:00:19;;;;;;;0.40;0.32;;;28.00;55.10;;;26.91;35.58;100281.41;9806707;29;96624;-92
2022/06/16 10:06:12;;;;;;;0.75;0.28;;;27.90;53.70;;;26.74;35.78;100280.88;9787682;29;97414;-94
2022/06/16 10:11:32;;;;;;;0.95;0.60;;;27.80;53.50;;;26.80;35.75;100287.94;9795001;29;97050;-93
2022/06/16 10:17:05;;;;;;;0.50;0.40;;;27.80;53.40;;;27.08;36.58;100280.34;9796390;29;96585;-92
2022/06/16 10:22:12;;;;;;;0.70;0.30;;;28.00;54.30;;;27.26;34.79;100276.22;9774481;29;96529;-94
2022/06/16 10:27:19;;;;;;;0.43;0.43;;;28.30;53.20;;;27.51;35.20;100269.84;9809687;29;96672;-94
2022/06/16 10:32:39;;;;;;;0.47;0.43;;;28.40;52.80;;;27.77;34.06;100271.44;9822532;29;96771;-94
2022/06/16 10:37:42;;;;;;;;;;;28.70;52.40;;;27.77;33.60;100270.59;9811302;29;97089;-93
2022/06/16 10:42:55;;;;;;;1.17;0.52;;;28.60;51.10;;;27.86;33.39;100277.94;9797208;29;97095;-95
2022/06/16 10:48:10;;;;;;;0.75;0.32;;;28.80;50.10;;;28.04;32.88;100279.19;9809979;29;96707;-93
2022/06/16 10:53:32;;;;;;;0.82;0.60;;;29.00;50.90;;;28.12;31.68;100270.41;9800851;29;98422;-94
2022/06/16 10:59:01;;;;;;;0.50;0.35;;;29.10;48.10;;;27.80;32.99;100275.50;9772280;29;96559;-92
2022/06/16 11:04:33;;;;;;;0.90;0.33;;;28.80;49.80;;;27.23;33.35;100261.22;9817368;29;96914;-93
2022/06/16 11:09:37;;;;;;;0.73;0.50;;;28.20;49.70;;;27.08;34.45;100256.59;9822483;29;96508;-94
2022/06/16 11:14:59;;;;;;;0.75;0.40;;;28.00;51.40;;;27.30;33.87;100242.66;9821611;29;96730;-94
2022/06/16 11:20:34;;;;;;;0.80;0.50;;;28.10;49.80;;;27.61;33.45;100221.50;9801104;29;96902;-93
2022/06/16 11:25:37;;;;;;;0.40;0.40;;;28.40;50.90;;;27.63;32.93;100218.50;9798869;29;97569;-93
2022/06/16 11:31:06;;;;;;;0.45;0.15;;;28.60;50.30;;;27.86;32.49;100214.31;9801806;29;98259;-94
2022/06/16 11:37:09;;;;;;;2.00;0.60;;;28.80;49.50;;;27.76;32.42;100209.72;9795823;29;96636;-93
2022/06/16 11:42:31;;;;;;;1.15;0.47;;;28.80;49.70;;;27.68;33.01;100200.19;9819397;29;96946;-92
2022/06/16 11:47:41;;;;;;;0.28;0.22;;;28.70;49.50;;;28.04;32.78;100202.72;9828438;29;96404;-93
2022/06/16 11:53:12;;;;;;;0.73;0.50;;;29.00;49.70;;;28.20;31.49;100196.06;9828041;29;96764;-93
2022/06/16 11:58:52;;;;;;;0.68;0.35;;;29.30;48.70;;;28.21;30.52;100186.75;9807545;29;96719;-90
2022/06/16 12:04:28;;;;;;;0.60;0.50;;;29.30;48.10;;;28.30;30.08;100183.41;9861772;29;96736;-91
2022/06/16 12:09:55;;;;;;;0.40;0.40;;;29.50;47.50;;;28.43;31.81;100183.63;9808540;29;96694;-91
2022/06/16 12:15:15;;;;;;;0.57;0.40;;;29.60;49.00;;;28.84;30.44;100183.19;9834308;29;96484;-92
2022/06/16 12:20:39;;;;;;;0.75;0.47;;;29.90;46.20;;;29.06;29.58;100186.28;9833103;29;96665;-92
2022/06/16 12:25:50;;;;;;;0.95;0.52;;;30.00;46.10;;;29.16;29.20;100190.00;9810661;29;97019;-91
2022/06/16 12:30:58;;;;;;;0.63;0.50;;;30.10;46.90;;;29.14;28.71;100186.75;9804732;29;96763;-93
2022/06/16 12:36:22;;;;;;;0.15;0.15;;;30.20;46.20;;;29.18;29.10;100174.94;9818641;29;97200;-93
2022/06/16 12:41:35;;;;;;;1.98;0.50;;;30.50;46.30;;;29.41;30.03;100169.72;9789971;29;96648;-92
2022/06/16 12:46:51;;;;;;;0.60;0.50;;;30.90;46.60;;;29.74;28.62;100152.28;9823576;29;96736;-93
2022/06/16 12:52:04;;;;;;;0.60;0.30;;;31.50;45.30;;;30.11;28.96;100142.47;9837243;29;96608;-93
2022/06/16 12:57:25;;;;;;;0.47;0.40;;;31.90;45.80;;;30.47;27.31;100137.19;9801198;29;97441;-93
2022/06/16 13:02:35;;;;;;;0.52;0.32;;;32.30;44.20;;;30.74;27.42;100125.47;9816314;29;96655;-92
2022/06/16 13:07:46;;;;;;;0.95;0.75;;;32.50;44.00;;;30.68;26.43;100109.38;9792867;29;97222;-93
2022/06/16 13:12:58;;;;;;;0.43;0.30;;;32.30;42.80;;;30.73;25.45;100107.38;9803310;29;96746;-92
2022/06/16 13:18:13;;;;;;;1.17;0.50;;;32.40;42.30;;;30.80;26.71;100106.97;9790179;29;96712;-92
2022/06/16 13:23:29;;;;;;;2.80;0.50;;;32.30;43.10;;;30.86;25.91;100101.06;9824260;29;96582;-91
2022/06/16 13:28:41;;;;;;;0.43;0.43;;;32.30;42.60;;;30.57;25.96;100097.78;9821508;29;97933;-94
2022/06/16 13:34:10;;;;;;;1.08;0.75;;;32.00;42.10;;;30.33;26.09;100095.22;9807430;29;96587;-92
2022/06/16 13:39:48;;;;;;;0.73;0.40;;;31.70;42.30;;;30.36;27.06;100092.69;9825037;29;96533;-92
2022/06/16 13:45:11;;;;;;;0.52;0.30;;;31.60;43.40;;;30.37;27.35;100085.28;9825719;29;96596;-92
2022/06/16 13:50:55;;;;;;;0.85;0.40;;;31.40;43.70;;;30.49;26.54;100084.78;9805476;29;96547;-94
2022/06/16 13:56:05;;;;;;;0.70;0.50;;;31.50;43.20;;;30.67;26.52;100077.59;9806283;29;96986;-92
2022/06/16 14:01:33;;;;;;;0.77;0.40;;;31.70;43.30;;;30.88;26.61;100059.63;9805137;29;98493;-92
2022/06/16 14:06:40;;;;;;;0.20;0.20;;;31.90;43.30;;;31.00;24.93;100057.16;9817292;29;96935;-92
2022/06/16 14:12:13;;;;;;;0.43;0.40;;;32.10;42.00;;;31.18;24.60;100064.44;9812407;29;97388;-91
2022/06/16 14:17:31;;;;;;;0.40;0.40;;;32.30;41.90;;;31.24;24.90;100050.59;9804556;29;98480;-92
2022/06/16 14:22:43;;;;;;;0.32;0.28;;;32.40;42.00;;;31.41;24.67;100048.03;9824721;29;96458;-91
2022/06/16 14:27:59;;;;;;;1.48;0.40;;;32.50;40.80;;;31.40;24.15;100036.25;9789301;29;96648;-89
2022/06/16 14:33:16;;;;;;;0.38;0.30;;;32.50;41.20;;;31.47;25.76;100033.06;9857425;29;96593;-90
2022/06/16 14:38:53;;;;;;;0.85;0.60;;;32.50;42.20;;;31.61;24.37;100017.38;9791986;29;97356;-92
2022/06/16 14:44:21;;;;;;;0.20;0.20;;;32.50;40.00;;;31.48;24.09;100011.91;9823047;29;96575;-92
2022/06/16 14:49:43;;;;;;;0.30;0.30;;;32.40;40.30;;;31.12;25.13;100019.00;9793246;29;97102;-92
2022/06/16 14:54:56;;;;;;;0.73;0.40;;;32.00;41.50;;;30.72;24.33;100006.22;9778030;29;96670;-93
2022/06/16 15:00:00;;;;;;;0.60;0.47;;;31.70;41.10;;;30.51;26.80;99998.34;9816400;29;96766;-93
2022/06/16 15:05:11;;;;;;;0.90;0.50;;;31.40;43.40;;;30.47;26.88;100011.06;9812367;29;96518;-93
2022/06/16 15:10:25;;;;;;;0.50;0.30;;;31.30;43.00;;;30.22;26.10;100006.06;9826443;29;96908;-90
2022/06/16 15:15:30;;;;;;;0.75;0.57;;;31.20;42.00;;;30.10;26.94;99998.31;9800605;29;96981;-92
2022/06/16 15:20:34;;;;;;;0.43;0.20;;;31.00;42.60;;;29.84;26.73;99997.97;9816079;29;96842;-93
2022/06/16 15:25:44;;;;;;;0.95;0.60;;;30.70;42.10;;;29.59;26.45;100000.03;9811612;29;96659;-93
2022/06/16 15:30:54;;;;;;;0.68;0.60;;;30.50;43.10;;;29.43;27.84;100003.25;9822587;29;96571;-91
2022/06/16 15:36:22;;;;;;;1.30;0.40;;;30.30;43.70;;;29.30;28.57;99997.44;9823679;29;96611;-93
2022/06/16 15:41:35;;;;;;;0.73;0.60;;;30.20;44.40;;;29.15;28.92;99997.69;9841454;29;97407;-93
2022/06/16 15:46:44;;;;;;;1.10;0.68;;;30.10;44.30;;;28.90;29.05;100003.44;9810400;29;98412;-93
2022/06/16 15:51:48;;;;;;;2.33;0.80;;;29.80;45.30;;;28.61;29.62;100004.38;9788693;29;97259;-93
2022/06/16 15:57:03;;;;;;;0.30;0.28;;;29.60;45.00;;;28.32;29.08;100018.13;9820352;29;96842;-92
2022/06/16 16:02:06;;;;;;;0.70;0.60;;;29.30;44.60;;;28.10;29.80;100015.03;9828775;29;96498;-93
2022/06/16 16:07:16;;;;;;;1.05;0.63;;;29.10;44.90;;;27.95;30.21;100002.34;9825470;29;96770;-93
2022/06/16 16:12:25;;;;;;;1.95;0.95;;;28.90;45.20;;;27.84;31.66;100009.81;9810837;29;96792;-93
2022/06/16 16:17:43;;;;;;;1.30;1.00;;;28.80;47.00;;;27.70;31.96;100003.38;9823591;29;96698;-95
2022/06/16 16:23:21;;;;;;;1.80;0.83;;;28.60;47.00;;;27.59;32.96;99993.59;9799123;29;96433;-92
2022/06/16 16:28:27;;;;;;;1.20;0.60;;;28.50;48.40;;;27.47;33.10;99992.06;9821672;29;96531;-92
2022/06/16 16:33:34;;;;;;;2.00;0.80;;;28.40;47.80;;;27.40;33.67;99980.66;9806953;29;98522;-92
2022/06/16 16:38:43;;;;;;;1.50;0.43;;;28.40;48.60;;;27.32;33.95;99984.00;9807360;29;96598;-92
2022/06/16 16:43:50;;;;;;;;;;;28.30;48.70;;;27.29;34.84;99984.56;9801473;29;96712;-90
2022/06/16 16:48:54;;;;;;;1.90;0.52;;;28.20;49.90;;;27.33;35.75;99980.16;9799386;29;96894;-93
2022/06/16 16:53:57;;;;;;;0.57;0.32;;;28.20;50.80;;;27.37;35.79;99978.50;9811368;29;97978;-92
2022/06/16 16:59:31;;;;;;;0.30;0.30;;;28.30;50.60;;;27.40;35.39;99980.66;9826499;29;96688;-92
2022/06/16 17:04:41;;;;;;;1.35;0.50;;;28.30;49.90;;;27.38;35.90;99980.13;9814577;29;96694;-92
2022/06/16 17:09:45;;;;;;;1.05;0.60;;;28.30;50.60;;;27.30;36.33;99988.94;9825739;29;96773;-91
2022/06/16 17:14:48;;;;;;;1.00;0.55;;;28.20;50.80;;;27.17;36.11;99993.09;9811387;29;96562;-91
2022/06/16 17:19:57;;;;;;;1.25;0.60;;;28.10;50.90;;;27.08;36.87;100005.69;9826420;29;96599;-92
2022/06/16 17:25:02;;;;;;;0.50;0.40;;;28.00;51.80;;;26.89;36.58;100012.88;9817854;29;96606;-92
2022/06/16 17:30:06;;;;;;;1.50;0.98;;;27.90;51.30;;;26.68;37.84;100021.13;9820535;29;96620;-92
2022/06/16 17:35:40;;;;;;;0.35;0.25;;;27.70;52.50;;;26.44;38.70;100020.09;9788371;29;96641;-93
2022/06/16 17:40:44;;;;;;;0.82;0.47;;;27.40;53.20;;;26.22;39.51;100031.31;9790546;29;96601;-93
2022/06/16 17:45:47;;;;;;;1.20;0.45;;;27.10;54.10;;;26.02;40.08;100044.94;9790869;29;97466;-92
2022/06/16 17:50:50;;;;;;;1.80;0.70;;;26.90;55.20;;;25.85;41.03;100048.78;9800030;29;97326;-91
2022/06/16 18:01:16;;;;;;;1.08;0.60;;;26.50;57.00;;;25.54;42.21;100047.06;9817080;29;97568;-91
2022/06/16 18:06:19;;;;;;;1.42;0.40;;;26.40;57.80;;;25.42;42.75;100046.53;9800308;29;98111;-92
2022/06/16 18:11:27;;;;;;;1.77;0.60;;;26.20;57.90;;;25.32;43.38;100045.44;9804008;29;97902;-91
2022/06/16 18:16:30;;;;;;;0.68;0.50;;;26.10;58.60;;;25.24;43.65;100045.13;9811906;29;97026;-91
2022/06/16 18:21:38;;;;;;;0.85;0.40;;;26.00;59.10;;;25.13;44.43;100047.03;9808989;29;96604;-91
2022/06/16 18:27:14;;;;;;;1.33;0.68;;;25.90;59.50;;;25.03;44.50;100052.38;9820030;29;96706;-91
2022/06/16 18:32:18;;;;;;;0.47;0.45;;;25.80;59.60;;;24.97;45.01;100054.28;9785589;29;96823;-90
2022/06/16 18:37:21;;;;;;;0.98;0.50;;;25.80;59.80;;;24.90;45.44;100071.91;9809160;29;96647;-91
2022/06/16 18:42:25;;;;;;;0.75;0.50;;;25.70;59.80;;;24.84;45.85;100079.22;9808833;29;96891;-91
2022/06/16 18:47:31;;;;;;;1.17;0.80;;;25.70;60.60;;;24.77;46.01;100082.19;9804834;29;98228;-90
2022/06/16 18:52:34;;;;;;;1.30;0.77;;;25.60;61.40;;;24.69;46.61;100084.56;9803967;29;96739;-90
2022/06/16 18:57:43;;;;;;;1.60;1.00;;;25.50;61.90;;;24.61;46.83;100088.63;9802685;29;96771;-92
2022/06/16 19:02:53;;;;;;;0.93;0.65;;;25.40;62.20;;;24.51;47.05;100092.06;9798514;29;96637;-91
2022/06/16 19:07:57;;;;;;;1.13;0.80;;;25.30;62.50;;;24.41;47.93;100137.34;9815598;29;96700;-91
2022/06/16 19:13:00;;;;;;;0.40;0.20;;;25.20;62.90;;;24.11;45.06;100176.75;9819156;29;96875;-92
2022/06/16 19:18:13;;;;;;;0.10;0.10;;;25.00;58.70;;;23.49;44.39;100228.66;9799146;29;98413;-91
2022/06/16 19:23:24;;;;;;;6.28;0.95;;;24.40;58.60;;;22.88;44.42;100239.47;9820774;29;98110;-92
2022/06/16 19:28:27;;;;;;;0.20;0.00;;;23.80;58.60;;;22.43;45.81;100251.22;9823433;29;97476;-90
2022/06/16 19:33:30;;;;;;;0.40;0.10;;;23.30;60.90;;;22.01;49.94;100266.91;9794581;29;96971;-93
2022/06/16 19:38:37;;;;;;;0.35;0.10;;;22.90;65.00;;;21.60;53.47;100297.72;9795052;29;98563;-91
2022/06/16 19:54:49;;;;;;;0.32;0.10;;;21.60;76.30;;;20.03;61.74;100341.25;9824005;29;96614;-96
2022/06/16 20:00:05;;;;;;;0.00;0.00;;;21.10;78.60;;;19.60;64.04;100388.00;9817833;29;96417;-96
2022/06/16 20:05:09;;;;;;;0.22;0.10;;;20.70;83.30;;;19.24;65.56;100421.03;9822007;29;97026;-96
2022/06/16 20:10:14;;;;;;;0.00;0.00;;;20.40;83.10;;;18.85;69.51;100430.22;9833140;29;96398;-95
2022/06/16 20:15:21;;;;;;;0.10;0.10;;;20.00;83.10;;;18.48;71.81;100429.97;9804969;29;96461;-96
2022/06/16 20:20:28;;;;;;;0.20;0.13;;;19.70;86.40;;;18.18;74.10;100422.44;9847237;29;96376;-96
2022/06/16 20:25:35;;;;;;;0.30;0.10;;;19.50;92.90;;;17.90;75.98;100424.56;9820361;29;96366;-95
2022/06/16 20:30:39;;;;;;;0.40;0.30;;;19.20;95.80;;;17.63;77.94;100395.03;9824643;29;96491;-94
2022/06/16 20:35:43;;;;;;;0.10;0.10;;;19.00;96.90;;;17.38;79.82;100337.59;9831693;24;97011;-84
2022/06/16 20:40:51;;;;;;;0.10;0.10;;;18.70;98.40;;;17.19;81.25;100312.41;9825782;29;96763;-85
2022/06/16 20:45:55;;;;;;;0.17;0.15;;;18.50;99.90;;;17.04;82.72;100291.16;9829148;29;98457;-85
2022/06/16 20:50:59;;;;;;;1.05;0.10;;;18.30;99.90;;;16.93;83.49;100296.34;9847503;29;96915;-85
2022/06/16 20:56:02;;;;;;;0.08;0.03;;;18.20;99.90;;;16.81;84.28;100310.38;9847031;29;97921;-85
2022/06/16 21:06:31;;;;;;;0.10;0.10;;;17.90;99.90;;;16.67;85.68;100311.34;9833172;29;96929;-85
2022/06/16 21:16:57;;;;;;;0.20;0.10;;;17.70;99.90;;;16.51;86.91;100282.25;9860667;29;97510;-85
2022/06/16 21:22:04;;;;;;;0.20;0.20;;;17.60;99.90;;;16.43;87.49;100274.38;9846230;29;98279;-84
2022/06/16 21:27:10;;;;;;;0.10;0.00;;;17.50;99.90;;;16.37;87.75;100270.66;9834517;29;97629;-85
2022/06/16 21:32:18;;;;;;;0.00;0.00;;;17.40;99.90;;;16.26;88.40;100271.28;9836442;29;98886;-84
2022/06/16 21:37:25;;;;;;;0.40;0.20;;;17.30;99.90;;;16.17;88.92;100273.28;9830249;29;97335;-84
2022/06/16 21:42:29;;;;;;;0.40;0.25;;;17.20;99.90;;;16.11;89.18;100263.38;9846027;29;96740;-88
2022/06/16 21:47:54;;;;;;;0.32;0.20;;;17.20;99.90;;;16.04;89.21;100276.78;9844905;29;98085;-85
2022/06/16 21:52:58;;;;;;;1.02;0.52;;;17.10;99.90;;;15.97;89.49;100265.22;9854725;29;96986;-86
2022/06/16 21:58:02;;;;;;;0.32;0.20;;;17.00;99.90;;;15.98;89.92;100258.81;9845277;29;96680;-86
2022/06/16 22:03:11;;;;;;;0.30;0.30;;;17.00;99.90;;;15.98;90.40;100245.41;9813129;29;96757;-86
2022/06/16 22:08:14;;;;;;;1.13;0.38;;;17.00;99.90;;;15.99;90.80;100241.69;9842834;29;96589;-87
2022/06/16 22:13:17;;;;;;;0.10;0.10;;;17.00;99.90;;;16.00;91.15;100248.72;9871026;29;100119;-86
2022/06/16 22:18:29;;;;;;;1.15;0.30;;;17.00;99.90;;;16.03;91.26;100242.13;9858726;29;96994;-88
2022/06/16 22:23:37;;;;;;;0.15;0.15;;;17.00;99.90;;;16.03;91.54;100234.91;9845558;29;96594;-88